sensor_id;sensor_type;location;lat;lon;timestamp;P1;durP1;ratioP1;P2;durP2;ratioP2
15254;SDS011;7730;49.610;11.136;2022-07-22T00:00:57;11.10;;;6.07;;
15254;SDS011;7730;49.610;11.136;2022-07-22T00:03:24;13.20;;;6.80;;
15254;SDS011;7730;49.610;11.136;2022-07-22T00:05:51;12.60;;;6.20;;
15254;SDS011;7730;49.610;11.136;2022-07-22T00:08:19;13.77;;;6.32;;
15254;SDS011;7730;49.610;11.136;2022-07-22T00:10:46;13.43;;;6.60;;
15254;SDS011;7730;49.610;11.136;2022-07-22T00:13:13;12.25;;;6.28;;
15254;SDS011;7730;49.610;11.136;2022-07-22T00:15:40;11.13;;;6.00;;
15254;SDS011;7730;49.610;11.136;2022-07-22T00:18:07;12.98;;;5.80;;
15254;SDS011;7730;49.610;11.136;2022-07-22T00:20:34;11.60;;;5.80;;
15254;SDS011;7730;49.610;11.136;2022-07-22T00:23:01;11.43;;;5.90;;
15254;SDS011;7730;49.610;11.136;2022-07-22T00:25:30;13.05;;;5.70;;
15254;SDS011;7730;49.610;11.136;2022-07-22T00:27:57;12.15;;;6.00;;
15254;SDS011;7730;49.610;11.136;2022-07-22T00:30:24;11.85;;;6.35;;
15254;SDS011;7730;49.610;11.136;2022-07-22T00:32:51;11.48;;;6.15;;
15254;SDS011;7730;49.610;11.136;2022-07-22T00:35:18;12.10;;;6.40;;
15254;SDS011;7730;49.610;11.136;2022-07-22T00:37:45;13.20;;;6.63;;
15254;SDS011;7730;49.610;11.136;2022-07-22T00:40:12;13.60;;;6.85;;
15254;SDS011;7730;49.610;11.136;2022-07-22T00:42:41;12.73;;;7.10;;
15254;SDS011;7730;49.610;11.136;2022-07-22T00:45:08;14.00;;;7.38;;
15254;SDS011;7730;49.610;11.136;2022-07-22T00:47:36;12.55;;;6.53;;
15254;SDS011;7730;49.610;11.136;2022-07-22T00:50:03;12.30;;;6.25;;
15254;SDS011;7730;49.610;11.136;2022-07-22T00:52:31;11.32;;;6.18;;
15254;SDS011;7730;49.610;11.136;2022-07-22T00:54:59;11.75;;;6.05;;
15254;SDS011;7730;49.610;11.136;2022-07-22T00:57:26;12.73;;;6.15;;
15254;SDS011;7730;49.610;11.136;2022-07-22T00:59:54;12.55;;;6.30;;
15254;SDS011;7730;49.610;11.136;2022-07-22T01:02:22;11.45;;;5.88;;
15254;SDS011;7730;49.610;11.136;2022-07-22T01:04:49;12.38;;;5.60;;
15254;SDS011;7730;49.610;11.136;2022-07-22T01:07:16;10.75;;;5.95;;
15254;SDS011;7730;49.610;11.136;2022-07-22T01:09:43;12.25;;;5.80;;
15254;SDS011;7730;49.610;11.136;2022-07-22T01:12:10;11.20;;;5.57;;
15254;SDS011;7730;49.610;11.136;2022-07-22T01:14:37;11.10;;;5.57;;
15254;SDS011;7730;49.610;11.136;2022-07-22T01:17:05;11.88;;;5.97;;
15254;SDS011;7730;49.610;11.136;2022-07-22T01:19:32;10.80;;;5.47;;
15254;SDS011;7730;49.610;11.136;2022-07-22T01:22:03;10.82;;;5.70;;
15254;SDS011;7730;49.610;11.136;2022-07-22T01:24:30;10.27;;;5.43;;
15254;SDS011;7730;49.610;11.136;2022-07-22T01:26:57;11.73;;;5.97;;
15254;SDS011;7730;49.610;11.136;2022-07-22T01:29:24;11.85;;;6.20;;
15254;SDS011;7730;49.610;11.136;2022-07-22T01:31:51;11.27;;;5.93;;
15254;SDS011;7730;49.610;11.136;2022-07-22T01:34:18;12.10;;;6.18;;
15254;SDS011;7730;49.610;11.136;2022-07-22T01:36:45;11.65;;;6.25;;
15254;SDS011;7730;49.610;11.136;2022-07-22T01:39:14;11.07;;;6.28;;
15254;SDS011;7730;49.610;11.136;2022-07-22T01:41:41;12.30;;;6.47;;
15254;SDS011;7730;49.610;11.136;2022-07-22T01:44:08;12.25;;;6.65;;
15254;SDS011;7730;49.610;11.136;2022-07-22T01:46:35;13.00;;;7.35;;
15254;SDS011;7730;49.610;11.136;2022-07-22T01:49:02;14.38;;;8.80;;
15254;SDS011;7730;49.610;11.136;2022-07-22T01:51:29;14.38;;;8.50;;
15254;SDS011;7730;49.610;11.136;2022-07-22T01:53:56;13.48;;;8.00;;
15254;SDS011;7730;49.610;11.136;2022-07-22T01:56:24;12.90;;;7.53;;
15254;SDS011;7730;49.610;11.136;2022-07-22T01:58:51;13.95;;;8.00;;
15254;SDS011;7730;49.610;11.136;2022-07-22T02:01:18;13.00;;;7.85;;
15254;SDS011;7730;49.610;11.136;2022-07-22T02:03:46;14.30;;;8.43;;
15254;SDS011;7730;49.610;11.136;2022-07-22T02:06:13;15.52;;;9.30;;
15254;SDS011;7730;49.610;11.136;2022-07-22T02:08:40;16.23;;;10.75;;
15254;SDS011;7730;49.610;11.136;2022-07-22T02:11:07;15.02;;;9.98;;
15254;SDS011;7730;49.610;11.136;2022-07-22T02:13:35;14.93;;;9.00;;
15254;SDS011;7730;49.610;11.136;2022-07-22T02:16:02;14.93;;;8.38;;
15254;SDS011;7730;49.610;11.136;2022-07-22T02:18:29;13.63;;;7.22;;
15254;SDS011;7730;49.610;11.136;2022-07-22T02:20:56;13.88;;;6.72;;
15254;SDS011;7730;49.610;11.136;2022-07-22T02:23:23;11.50;;;6.28;;
15254;SDS011;7730;49.610;11.136;2022-07-22T02:25:50;11.93;;;6.07;;
15254;SDS011;7730;49.610;11.136;2022-07-22T02:28:17;12.13;;;6.40;;
15254;SDS011;7730;49.610;11.136;2022-07-22T02:30:46;12.10;;;6.20;;
15254;SDS011;7730;49.610;11.136;2022-07-22T02:33:13;12.35;;;6.30;;
15254;SDS011;7730;49.610;11.136;2022-07-22T02:35:40;11.98;;;6.63;;
15254;SDS011;7730;49.610;11.136;2022-07-22T02:38:07;14.80;;;8.80;;
15254;SDS011;7730;49.610;11.136;2022-07-22T02:40:34;16.75;;;9.18;;
15254;SDS011;7730;49.610;11.136;2022-07-22T02:43:01;14.50;;;8.70;;
15254;SDS011;7730;49.610;11.136;2022-07-22T02:45:31;14.65;;;8.45;;
15254;SDS011;7730;49.610;11.136;2022-07-22T02:47:59;13.52;;;7.35;;
15254;SDS011;7730;49.610;11.136;2022-07-22T02:50:26;13.40;;;7.00;;
15254;SDS011;7730;49.610;11.136;2022-07-22T02:52:53;12.85;;;7.00;;
15254;SDS011;7730;49.610;11.136;2022-07-22T02:55:20;11.00;;;6.13;;
15254;SDS011;7730;49.610;11.136;2022-07-22T02:57:47;11.82;;;6.35;;
15254;SDS011;7730;49.610;11.136;2022-07-22T03:00:15;11.30;;;6.18;;
15254;SDS011;7730;49.610;11.136;2022-07-22T03:02:42;11.88;;;6.53;;
15254;SDS011;7730;49.610;11.136;2022-07-22T03:05:10;12.35;;;6.65;;
15254;SDS011;7730;49.610;11.136;2022-07-22T03:07:37;12.23;;;6.65;;
15254;SDS011;7730;49.610;11.136;2022-07-22T03:10:04;12.15;;;6.40;;
15254;SDS011;7730;49.610;11.136;2022-07-22T03:12:32;11.23;;;6.60;;
15254;SDS011;7730;49.610;11.136;2022-07-22T03:14:59;14.90;;;6.88;;
15254;SDS011;7730;49.610;11.136;2022-07-22T03:17:26;12.63;;;6.53;;
15254;SDS011;7730;49.610;11.136;2022-07-22T03:19:53;12.15;;;6.43;;
15254;SDS011;7730;49.610;11.136;2022-07-22T03:22:21;12.43;;;6.60;;
15254;SDS011;7730;49.610;11.136;2022-07-22T03:24:48;13.27;;;6.72;;
15254;SDS011;7730;49.610;11.136;2022-07-22T03:27:15;13.15;;;6.90;;
15254;SDS011;7730;49.610;11.136;2022-07-22T03:29:42;12.35;;;6.90;;
15254;SDS011;7730;49.610;11.136;2022-07-22T03:32:09;14.07;;;7.10;;
15254;SDS011;7730;49.610;11.136;2022-07-22T03:34:36;13.18;;;6.70;;
15254;SDS011;7730;49.610;11.136;2022-07-22T03:37:03;16.85;;;7.18;;
15254;SDS011;7730;49.610;11.136;2022-07-22T03:39:32;13.25;;;7.35;;
15254;SDS011;7730;49.610;11.136;2022-07-22T03:41:59;13.73;;;7.35;;
15254;SDS011;7730;49.610;11.136;2022-07-22T03:44:26;16.92;;;7.55;;
15254;SDS011;7730;49.610;11.136;2022-07-22T03:46:53;15.02;;;7.35;;
15254;SDS011;7730;49.610;11.136;2022-07-22T03:49:20;12.65;;;6.90;;
15254;SDS011;7730;49.610;11.136;2022-07-22T03:51:47;12.55;;;6.60;;
15254;SDS011;7730;49.610;11.136;2022-07-22T03:54:14;13.48;;;7.03;;
15254;SDS011;7730;49.610;11.136;2022-07-22T03:56:42;13.00;;;7.20;;
15254;SDS011;7730;49.610;11.136;2022-07-22T03:59:09;18.80;;;7.50;;
15254;SDS011;7730;49.610;11.136;2022-07-22T04:01:36;15.73;;;7.68;;
15254;SDS011;7730;49.610;11.136;2022-07-22T04:04:03;12.77;;;7.13;;
15254;SDS011;7730;49.610;11.136;2022-07-22T04:06:30;12.68;;;7.07;;
15254;SDS011;7730;49.610;11.136;2022-07-22T04:08:57;14.13;;;7.00;;
15254;SDS011;7730;49.610;11.136;2022-07-22T04:11:24;13.45;;;6.90;;
15254;SDS011;7730;49.610;11.136;2022-07-22T04:13:53;13.27;;;7.32;;
15254;SDS011;7730;49.610;11.136;2022-07-22T04:16:20;14.30;;;7.22;;
15254;SDS011;7730;49.610;11.136;2022-07-22T04:18:47;13.75;;;7.05;;
15254;SDS011;7730;49.610;11.136;2022-07-22T04:21:14;14.18;;;7.43;;
15254;SDS011;7730;49.610;11.136;2022-07-22T04:23:41;13.35;;;7.30;;
15254;SDS011;7730;49.610;11.136;2022-07-22T04:26:08;14.68;;;7.57;;
15254;SDS011;7730;49.610;11.136;2022-07-22T04:28:35;13.60;;;7.07;;
15254;SDS011;7730;49.610;11.136;2022-07-22T04:31:04;13.10;;;6.88;;
15254;SDS011;7730;49.610;11.136;2022-07-22T04:33:31;14.32;;;6.60;;
15254;SDS011;7730;49.610;11.136;2022-07-22T04:35:58;12.43;;;6.85;;
15254;SDS011;7730;49.610;11.136;2022-07-22T04:38:25;13.80;;;7.63;;
15254;SDS011;7730;49.610;11.136;2022-07-22T04:40:52;13.77;;;7.75;;
15254;SDS011;7730;49.610;11.136;2022-07-22T04:43:19;14.52;;;7.60;;
15254;SDS011;7730;49.610;11.136;2022-07-22T04:45:47;13.02;;;7.63;;
15254;SDS011;7730;49.610;11.136;2022-07-22T04:48:15;14.07;;;7.18;;
15254;SDS011;7730;49.610;11.136;2022-07-22T04:50:42;13.60;;;7.63;;
15254;SDS011;7730;49.610;11.136;2022-07-22T04:53:09;13.93;;;8.45;;
15254;SDS011;7730;49.610;11.136;2022-07-22T04:55:36;14.73;;;8.20;;
15254;SDS011;7730;49.610;11.136;2022-07-22T04:58:03;14.32;;;8.90;;
15254;SDS011;7730;49.610;11.136;2022-07-22T05:00:31;13.65;;;8.45;;
15254;SDS011;7730;49.610;11.136;2022-07-22T05:02:58;14.25;;;8.93;;
15254;SDS011;7730;49.610;11.136;2022-07-22T05:05:26;15.27;;;8.88;;
15254;SDS011;7730;49.610;11.136;2022-07-22T05:07:53;14.50;;;8.18;;
15254;SDS011;7730;49.610;11.136;2022-07-22T05:10:20;13.80;;;7.90;;
15254;SDS011;7730;49.610;11.136;2022-07-22T05:12:47;14.82;;;8.82;;
15254;SDS011;7730;49.610;11.136;2022-07-22T05:15:14;15.32;;;9.15;;
15254;SDS011;7730;49.610;11.136;2022-07-22T05:17:41;13.52;;;7.78;;
15254;SDS011;7730;49.610;11.136;2022-07-22T05:20:09;15.48;;;8.00;;
15254;SDS011;7730;49.610;11.136;2022-07-22T05:22:37;15.02;;;7.60;;
15254;SDS011;7730;49.610;11.136;2022-07-22T05:25:04;13.27;;;7.78;;
15254;SDS011;7730;49.610;11.136;2022-07-22T05:27:31;13.80;;;8.43;;
15254;SDS011;7730;49.610;11.136;2022-07-22T05:29:58;13.90;;;8.60;;
15254;SDS011;7730;49.610;11.136;2022-07-22T05:32:25;14.90;;;8.68;;
15254;SDS011;7730;49.610;11.136;2022-07-22T05:34:52;14.45;;;8.98;;
15254;SDS011;7730;49.610;11.136;2022-07-22T05:37:19;18.13;;;9.07;;
15254;SDS011;7730;49.610;11.136;2022-07-22T05:39:48;15.95;;;8.88;;
15254;SDS011;7730;49.610;11.136;2022-07-22T05:42:15;17.10;;;10.20;;
15254;SDS011;7730;49.610;11.136;2022-07-22T05:44:42;16.75;;;10.43;;
15254;SDS011;7730;49.610;11.136;2022-07-22T05:47:09;16.30;;;10.05;;
15254;SDS011;7730;49.610;11.136;2022-07-22T05:49:37;16.80;;;10.52;;
15254;SDS011;7730;49.610;11.136;2022-07-22T05:52:04;17.38;;;11.32;;
15254;SDS011;7730;49.610;11.136;2022-07-22T05:54:31;18.45;;;11.48;;
15254;SDS011;7730;49.610;11.136;2022-07-22T05:56:59;17.30;;;10.93;;
15254;SDS011;7730;49.610;11.136;2022-07-22T05:59:26;18.65;;;11.65;;
15254;SDS011;7730;49.610;11.136;2022-07-22T06:01:53;21.98;;;10.57;;
15254;SDS011;7730;49.610;11.136;2022-07-22T06:04:20;18.15;;;9.85;;
15254;SDS011;7730;49.610;11.136;2022-07-22T06:06:47;16.15;;;10.05;;
15254;SDS011;7730;49.610;11.136;2022-07-22T06:09:14;16.60;;;9.52;;
15254;SDS011;7730;49.610;11.136;2022-07-22T06:11:41;19.08;;;9.68;;
15254;SDS011;7730;49.610;11.136;2022-07-22T06:14:10;12.43;;;6.93;;
15254;SDS011;7730;49.610;11.136;2022-07-22T06:16:37;13.27;;;6.60;;
15254;SDS011;7730;49.610;11.136;2022-07-22T06:19:04;13.85;;;7.38;;
15254;SDS011;7730;49.610;11.136;2022-07-22T06:21:31;13.70;;;6.68;;
15254;SDS011;7730;49.610;11.136;2022-07-22T06:23:58;12.38;;;6.38;;
15254;SDS011;7730;49.610;11.136;2022-07-22T06:26:25;13.70;;;7.15;;
15254;SDS011;7730;49.610;11.136;2022-07-22T06:28:52;15.98;;;6.63;;
15254;SDS011;7730;49.610;11.136;2022-07-22T06:31:20;13.07;;;6.47;;
15254;SDS011;7730;49.610;11.136;2022-07-22T06:33:47;12.73;;;6.88;;
15254;SDS011;7730;49.610;11.136;2022-07-22T06:36:15;13.45;;;7.07;;
15254;SDS011;7730;49.610;11.136;2022-07-22T06:38:42;14.40;;;7.05;;
15254;SDS011;7730;49.610;11.136;2022-07-22T06:41:09;12.95;;;6.65;;
15254;SDS011;7730;49.610;11.136;2022-07-22T06:43:38;12.57;;;6.68;;
15254;SDS011;7730;49.610;11.136;2022-07-22T06:46:05;13.57;;;6.53;;
15254;SDS011;7730;49.610;11.136;2022-07-22T06:48:34;13.48;;;6.88;;
15254;SDS011;7730;49.610;11.136;2022-07-22T06:51:01;13.45;;;7.05;;
15254;SDS011;7730;49.610;11.136;2022-07-22T06:53:28;13.35;;;6.63;;
15254;SDS011;7730;49.610;11.136;2022-07-22T06:55:55;13.65;;;7.07;;
15254;SDS011;7730;49.610;11.136;2022-07-22T06:58:22;13.52;;;6.82;;
15254;SDS011;7730;49.610;11.136;2022-07-22T07:00:49;12.57;;;6.93;;
15254;SDS011;7730;49.610;11.136;2022-07-22T07:03:16;13.82;;;7.50;;
15254;SDS011;7730;49.610;11.136;2022-07-22T07:05:44;12.68;;;6.65;;
15254;SDS011;7730;49.610;11.136;2022-07-22T07:08:11;14.95;;;7.82;;
15254;SDS011;7730;49.610;11.136;2022-07-22T07:10:38;14.52;;;8.00;;
15254;SDS011;7730;49.610;11.136;2022-07-22T07:13:05;13.57;;;7.43;;
15254;SDS011;7730;49.610;11.136;2022-07-22T07:15:32;16.58;;;8.07;;
15254;SDS011;7730;49.610;11.136;2022-07-22T07:17:59;14.68;;;7.30;;
15254;SDS011;7730;49.610;11.136;2022-07-22T07:20:26;12.93;;;7.00;;
15254;SDS011;7730;49.610;11.136;2022-07-22T07:22:55;13.55;;;7.07;;
15254;SDS011;7730;49.610;11.136;2022-07-22T07:25:22;15.07;;;7.20;;
15254;SDS011;7730;49.610;11.136;2022-07-22T07:27:49;12.70;;;7.10;;
15254;SDS011;7730;49.610;11.136;2022-07-22T07:30:16;14.57;;;7.05;;
15254;SDS011;7730;49.610;11.136;2022-07-22T07:32:43;12.68;;;6.78;;
15254;SDS011;7730;49.610;11.136;2022-07-22T07:35:10;13.73;;;6.90;;
15254;SDS011;7730;49.610;11.136;2022-07-22T07:37:37;13.05;;;7.00;;
15254;SDS011;7730;49.610;11.136;2022-07-22T07:40:06;13.57;;;6.57;;
15254;SDS011;7730;49.610;11.136;2022-07-22T07:42:33;13.15;;;6.32;;
15254;SDS011;7730;49.610;11.136;2022-07-22T07:45:01;14.57;;;6.97;;
15254;SDS011;7730;49.610;11.136;2022-07-22T07:47:28;13.00;;;6.95;;
15254;SDS011;7730;49.610;11.136;2022-07-22T07:49:55;14.23;;;6.45;;
15254;SDS011;7730;49.610;11.136;2022-07-22T07:52:25;13.65;;;6.90;;
15254;SDS011;7730;49.610;11.136;2022-07-22T07:54:52;14.18;;;6.80;;
15254;SDS011;7730;49.610;11.136;2022-07-22T07:57:21;13.50;;;6.45;;
15254;SDS011;7730;49.610;11.136;2022-07-22T07:59:49;15.70;;;6.75;;
15254;SDS011;7730;49.610;11.136;2022-07-22T08:02:16;14.80;;;7.15;;
15254;SDS011;7730;49.610;11.136;2022-07-22T08:04:43;12.48;;;6.55;;
15254;SDS011;7730;49.610;11.136;2022-07-22T08:07:10;12.63;;;6.80;;
15254;SDS011;7730;49.610;11.136;2022-07-22T08:09:37;13.10;;;6.65;;
15254;SDS011;7730;49.610;11.136;2022-07-22T08:12:04;13.30;;;7.18;;
15254;SDS011;7730;49.610;11.136;2022-07-22T08:14:33;19.63;;;6.95;;
15254;SDS011;7730;49.610;11.136;2022-07-22T08:17:00;12.88;;;6.40;;
15254;SDS011;7730;49.610;11.136;2022-07-22T08:19:27;12.57;;;6.00;;
15254;SDS011;7730;49.610;11.136;2022-07-22T08:21:54;18.95;;;7.28;;
15254;SDS011;7730;49.610;11.136;2022-07-22T08:24:21;12.98;;;6.70;;
15254;SDS011;7730;49.610;11.136;2022-07-22T08:26:48;14.25;;;6.93;;
15254;SDS011;7730;49.610;11.136;2022-07-22T08:29:15;33.90;;;8.63;;
15254;SDS011;7730;49.610;11.136;2022-07-22T08:31:43;13.00;;;6.30;;
15254;SDS011;7730;49.610;11.136;2022-07-22T08:34:10;12.10;;;6.15;;
15254;SDS011;7730;49.610;11.136;2022-07-22T08:36:37;14.05;;;6.97;;
15254;SDS011;7730;49.610;11.136;2022-07-22T08:39:04;13.65;;;6.70;;
15254;SDS011;7730;49.610;11.136;2022-07-22T08:41:33;14.25;;;6.30;;
15254;SDS011;7730;49.610;11.136;2022-07-22T08:44:01;12.15;;;6.00;;
15254;SDS011;7730;49.610;11.136;2022-07-22T08:46:28;14.02;;;6.97;;
15254;SDS011;7730;49.610;11.136;2022-07-22T08:48:57;22.48;;;7.32;;
15254;SDS011;7730;49.610;11.136;2022-07-22T08:51:25;11.98;;;5.60;;
15254;SDS011;7730;49.610;11.136;2022-07-22T08:53:53;13.30;;;5.93;;
15254;SDS011;7730;49.610;11.136;2022-07-22T08:56:20;15.63;;;6.45;;
15254;SDS011;7730;49.610;11.136;2022-07-22T08:58:47;13.73;;;5.60;;
15254;SDS011;7730;49.610;11.136;2022-07-22T09:01:15;14.98;;;6.68;;
15254;SDS011;7730;49.610;11.136;2022-07-22T09:03:45;26.33;;;7.32;;
15254;SDS011;7730;49.610;11.136;2022-07-22T09:06:16;17.70;;;6.50;;
15254;SDS011;7730;49.610;11.136;2022-07-22T09:08:49;12.85;;;5.97;;
15254;SDS011;7730;49.610;11.136;2022-07-22T09:11:17;26.52;;;6.75;;
15254;SDS011;7730;49.610;11.136;2022-07-22T09:13:44;16.52;;;6.70;;
15254;SDS011;7730;49.610;11.136;2022-07-22T09:16:11;32.90;;;8.13;;
15254;SDS011;7730;49.610;11.136;2022-07-22T09:18:45;11.38;;;5.97;;
15254;SDS011;7730;49.610;11.136;2022-07-22T09:21:12;15.98;;;6.40;;
15254;SDS011;7730;49.610;11.136;2022-07-22T09:23:41;12.65;;;6.35;;
15254;SDS011;7730;49.610;11.136;2022-07-22T09:26:08;12.43;;;5.38;;
15254;SDS011;7730;49.610;11.136;2022-07-22T09:28:36;11.70;;;5.90;;
15254;SDS011;7730;49.610;11.136;2022-07-22T09:31:03;13.88;;;5.60;;
15254;SDS011;7730;49.610;11.136;2022-07-22T09:33:30;12.50;;;6.13;;
15254;SDS011;7730;49.610;11.136;2022-07-22T09:36:01;12.40;;;5.97;;
15254;SDS011;7730;49.610;11.136;2022-07-22T09:38:28;12.70;;;5.95;;
15254;SDS011;7730;49.610;11.136;2022-07-22T09:40:59;19.67;;;6.63;;
15254;SDS011;7730;49.610;11.136;2022-07-22T09:43:26;12.07;;;6.05;;
15254;SDS011;7730;49.610;11.136;2022-07-22T09:45:59;14.63;;;8.82;;
15254;SDS011;7730;49.610;11.136;2022-07-22T09:48:26;13.63;;;6.03;;
15254;SDS011;7730;49.610;11.136;2022-07-22T09:50:53;20.92;;;7.82;;
15254;SDS011;7730;49.610;11.136;2022-07-22T09:53:22;15.07;;;7.45;;
15254;SDS011;7730;49.610;11.136;2022-07-22T09:55:49;11.85;;;5.35;;
15254;SDS011;7730;49.610;11.136;2022-07-22T09:58:18;10.93;;;5.22;;
15254;SDS011;7730;49.610;11.136;2022-07-22T10:00:45;12.38;;;6.60;;
15254;SDS011;7730;49.610;11.136;2022-07-22T10:03:13;11.35;;;5.68;;
15254;SDS011;7730;49.610;11.136;2022-07-22T10:05:43;12.98;;;5.97;;
15254;SDS011;7730;49.610;11.136;2022-07-22T10:08:10;22.45;;;8.40;;
15254;SDS011;7730;49.610;11.136;2022-07-22T10:10:38;12.40;;;5.90;;
15254;SDS011;7730;49.610;11.136;2022-07-22T10:13:05;15.35;;;9.10;;
15254;SDS011;7730;49.610;11.136;2022-07-22T10:15:34;17.48;;;6.15;;
15254;SDS011;7730;49.610;11.136;2022-07-22T10:18:03;13.27;;;5.97;;
15254;SDS011;7730;49.610;11.136;2022-07-22T10:20:31;12.75;;;5.97;;
15254;SDS011;7730;49.610;11.136;2022-07-22T10:22:59;12.20;;;5.43;;
15254;SDS011;7730;49.610;11.136;2022-07-22T10:25:27;11.20;;;5.22;;
15254;SDS011;7730;49.610;11.136;2022-07-22T10:27:55;22.70;;;6.70;;
15254;SDS011;7730;49.610;11.136;2022-07-22T10:30:24;11.35;;;5.38;;
15254;SDS011;7730;49.610;11.136;2022-07-22T10:33:06;13.73;;;5.60;;
15254;SDS011;7730;49.610;11.136;2022-07-22T10:35:33;21.70;;;6.05;;
15254;SDS011;7730;49.610;11.136;2022-07-22T10:38:02;11.05;;;5.57;;
15254;SDS011;7730;49.610;11.136;2022-07-22T10:40:30;15.07;;;5.50;;
15254;SDS011;7730;49.610;11.136;2022-07-22T10:43:09;12.02;;;5.35;;
15254;SDS011;7730;49.610;11.136;2022-07-22T10:45:41;12.25;;;5.15;;
15254;SDS011;7730;49.610;11.136;2022-07-22T10:48:12;11.57;;;5.35;;
15254;SDS011;7730;49.610;11.136;2022-07-22T10:50:40;12.75;;;5.30;;
15254;SDS011;7730;49.610;11.136;2022-07-22T10:53:08;13.45;;;5.47;;
15254;SDS011;7730;49.610;11.136;2022-07-22T10:55:35;11.63;;;4.47;;
15254;SDS011;7730;49.610;11.136;2022-07-22T11:00:45;12.52;;;5.55;;
15254;SDS011;7730;49.610;11.136;2022-07-22T11:03:13;11.38;;;4.35;;
15254;SDS011;7730;49.610;11.136;2022-07-22T11:05:49;11.35;;;5.32;;
15254;SDS011;7730;49.610;11.136;2022-07-22T11:08:16;11.82;;;5.00;;
15254;SDS011;7730;49.610;11.136;2022-07-22T11:10:46;11.60;;;5.43;;
15254;SDS011;7730;49.610;11.136;2022-07-22T11:13:13;17.45;;;5.75;;
15254;SDS011;7730;49.610;11.136;2022-07-22T11:15:56;13.05;;;4.57;;
15254;SDS011;7730;49.610;11.136;2022-07-22T11:18:24;11.80;;;5.32;;
15254;SDS011;7730;49.610;11.136;2022-07-22T11:20:51;12.48;;;4.90;;
15254;SDS011;7730;49.610;11.136;2022-07-22T11:23:25;13.80;;;4.78;;
15254;SDS011;7730;49.610;11.136;2022-07-22T11:25:52;11.20;;;5.32;;
15254;SDS011;7730;49.610;11.136;2022-07-22T11:28:19;23.52;;;5.85;;
15254;SDS011;7730;49.610;11.136;2022-07-22T11:30:46;11.75;;;5.00;;
15254;SDS011;7730;49.610;11.136;2022-07-22T11:33:32;12.07;;;5.15;;
15254;SDS011;7730;49.610;11.136;2022-07-22T11:36:02;12.82;;;4.75;;
15254;SDS011;7730;49.610;11.136;2022-07-22T11:38:40;27.70;;;6.10;;
15254;SDS011;7730;49.610;11.136;2022-07-22T11:41:07;16.55;;;5.10;;
15254;SDS011;7730;49.610;11.136;2022-07-22T11:43:37;27.40;;;6.13;;
15254;SDS011;7730;49.610;11.136;2022-07-22T11:46:04;60.10;;;8.82;;
15254;SDS011;7730;49.610;11.136;2022-07-22T11:48:32;21.73;;;6.10;;
15254;SDS011;7730;49.610;11.136;2022-07-22T11:51:00;14.75;;;5.15;;
15254;SDS011;7730;49.610;11.136;2022-07-22T11:53:27;13.80;;;4.97;;
15254;SDS011;7730;49.610;11.136;2022-07-22T11:55:56;12.15;;;4.55;;
15254;SDS011;7730;49.610;11.136;2022-07-22T11:58:33;10.18;;;5.07;;
15254;SDS011;7730;49.610;11.136;2022-07-22T12:01:00;45.55;;;6.65;;
15254;SDS011;7730;49.610;11.136;2022-07-22T12:03:27;10.77;;;4.88;;
15254;SDS011;7730;49.610;11.136;2022-07-22T12:05:56;11.07;;;5.15;;
15254;SDS011;7730;49.610;11.136;2022-07-22T12:08:23;9.60;;;4.35;;
15254;SDS011;7730;49.610;11.136;2022-07-22T12:10:50;11.90;;;4.90;;
15254;SDS011;7730;49.610;11.136;2022-07-22T12:13:17;12.65;;;4.90;;
15254;SDS011;7730;49.610;11.136;2022-07-22T12:15:44;11.57;;;4.90;;
15254;SDS011;7730;49.610;11.136;2022-07-22T12:18:15;10.18;;;5.00;;
15254;SDS011;7730;49.610;11.136;2022-07-22T12:20:42;14.35;;;5.65;;
15254;SDS011;7730;49.610;11.136;2022-07-22T12:23:11;11.43;;;5.10;;
15254;SDS011;7730;49.610;11.136;2022-07-22T12:25:51;10.25;;;4.78;;
15254;SDS011;7730;49.610;11.136;2022-07-22T12:28:18;10.95;;;4.85;;
15254;SDS011;7730;49.610;11.136;2022-07-22T12:30:45;11.73;;;5.30;;
15254;SDS011;7730;49.610;11.136;2022-07-22T12:33:13;10.35;;;5.07;;
15254;SDS011;7730;49.610;11.136;2022-07-22T12:35:40;8.57;;;4.32;;
15254;SDS011;7730;49.610;11.136;2022-07-22T12:38:07;10.88;;;5.10;;
15254;SDS011;7730;49.610;11.136;2022-07-22T12:40:36;11.18;;;4.97;;
15254;SDS011;7730;49.610;11.136;2022-07-22T12:43:04;11.80;;;4.65;;
15254;SDS011;7730;49.610;11.136;2022-07-22T12:45:31;10.57;;;4.47;;
15254;SDS011;7730;49.610;11.136;2022-07-22T12:48:04;9.40;;;4.20;;
15254;SDS011;7730;49.610;11.136;2022-07-22T12:50:33;12.32;;;4.97;;
15254;SDS011;7730;49.610;11.136;2022-07-22T12:53:02;19.42;;;5.10;;
15254;SDS011;7730;49.610;11.136;2022-07-22T12:55:30;11.65;;;4.93;;
15254;SDS011;7730;49.610;11.136;2022-07-22T12:57:59;15.15;;;5.40;;
15254;SDS011;7730;49.610;11.136;2022-07-22T13:00:27;9.55;;;4.70;;
15254;SDS011;7730;49.610;11.136;2022-07-22T13:02:54;16.23;;;4.82;;
15254;SDS011;7730;49.610;11.136;2022-07-22T13:05:22;11.45;;;4.82;;
15254;SDS011;7730;49.610;11.136;2022-07-22T13:07:49;10.32;;;4.55;;
15254;SDS011;7730;49.610;11.136;2022-07-22T13:10:18;11.40;;;4.70;;
15254;SDS011;7730;49.610;11.136;2022-07-22T13:12:45;11.00;;;4.68;;
15254;SDS011;7730;49.610;11.136;2022-07-22T13:15:13;11.75;;;4.50;;
15254;SDS011;7730;49.610;11.136;2022-07-22T13:17:41;11.05;;;5.00;;
15254;SDS011;7730;49.610;11.136;2022-07-22T13:20:09;11.40;;;4.85;;
15254;SDS011;7730;49.610;11.136;2022-07-22T13:22:37;9.90;;;4.00;;
15254;SDS011;7730;49.610;11.136;2022-07-22T13:25:05;9.65;;;4.50;;
15254;SDS011;7730;49.610;11.136;2022-07-22T13:27:32;9.68;;;4.40;;
15254;SDS011;7730;49.610;11.136;2022-07-22T13:29:59;9.07;;;4.00;;
15254;SDS011;7730;49.610;11.136;2022-07-22T13:32:27;11.40;;;4.15;;
15254;SDS011;7730;49.610;11.136;2022-07-22T13:34:54;10.80;;;4.70;;
15254;SDS011;7730;49.610;11.136;2022-07-22T13:37:21;9.25;;;4.40;;
15254;SDS011;7730;49.610;11.136;2022-07-22T13:39:49;11.30;;;4.63;;
15254;SDS011;7730;49.610;11.136;2022-07-22T13:44:44;9.77;;;4.68;;
15254;SDS011;7730;49.610;11.136;2022-07-22T13:47:11;10.20;;;4.90;;
15254;SDS011;7730;49.610;11.136;2022-07-22T13:49:40;12.15;;;4.70;;
15254;SDS011;7730;49.610;11.136;2022-07-22T13:52:07;10.82;;;4.50;;
15254;SDS011;7730;49.610;11.136;2022-07-22T13:54:34;10.88;;;5.07;;
15254;SDS011;7730;49.610;11.136;2022-07-22T13:57:01;10.18;;;4.68;;
15254;SDS011;7730;49.610;11.136;2022-07-22T13:59:29;10.25;;;4.70;;
15254;SDS011;7730;49.610;11.136;2022-07-22T14:01:57;9.98;;;4.90;;
15254;SDS011;7730;49.610;11.136;2022-07-22T14:04:24;10.07;;;4.60;;
15254;SDS011;7730;49.610;11.136;2022-07-22T14:06:52;11.68;;;4.80;;
15254;SDS011;7730;49.610;11.136;2022-07-22T14:09:19;9.40;;;4.47;;
15254;SDS011;7730;49.610;11.136;2022-07-22T14:11:47;8.93;;;4.40;;
15254;SDS011;7730;49.610;11.136;2022-07-22T14:14:14;10.07;;;4.30;;
15254;SDS011;7730;49.610;11.136;2022-07-22T14:16:41;12.63;;;4.70;;
15254;SDS011;7730;49.610;11.136;2022-07-22T14:19:09;9.82;;;4.53;;
15254;SDS011;7730;49.610;11.136;2022-07-22T14:21:38;8.73;;;4.38;;
15254;SDS011;7730;49.610;11.136;2022-07-22T14:24:07;10.75;;;4.50;;
15254;SDS011;7730;49.610;11.136;2022-07-22T14:26:35;11.07;;;4.50;;
15254;SDS011;7730;49.610;11.136;2022-07-22T14:29:02;10.20;;;4.70;;
15254;SDS011;7730;49.610;11.136;2022-07-22T14:31:30;9.80;;;4.68;;
15254;SDS011;7730;49.610;11.136;2022-07-22T14:33:57;10.85;;;4.60;;
15254;SDS011;7730;49.610;11.136;2022-07-22T14:36:24;8.32;;;4.40;;
15254;SDS011;7730;49.610;11.136;2022-07-22T14:38:51;10.35;;;4.10;;
15254;SDS011;7730;49.610;11.136;2022-07-22T14:41:20;9.30;;;4.38;;
15254;SDS011;7730;49.610;11.136;2022-07-22T14:43:47;9.60;;;4.40;;